Time;durP1;ratioP1;P1;durP2;ratioP2;P2;SDS_P1;SDS_P2;PMS_P1;PMS_P2;Temp;Humidity;BMP_temperature;BMP_pressure;BME280_temperature;BME280_humidity;BME280_pressure;Samples;Min_cycle;Max_cycle;Signal;HPM_P1;HPM_P2
2022/10/07 00:00:05;;;;;;;5.37;3.58;;;;;;;7.28;100.00;101743.13;1749936;82;21128;-38
2022/10/07 00:02:32;;;;;;;10.35;3.60;;;;;;;7.25;100.00;101752.54;1750095;82;20956;-38
2022/10/07 00:04:59;;;;;;;6.47;3.27;;;;;;;7.19;100.00;101747.70;1750156;82;21462;-38
2022/10/07 00:07:26;;;;;;;7.03;2.92;;;;;;;7.16;100.00;101746.81;1750022;82;21019;-38
2022/10/07 00:09:53;;;;;;;7.03;4.10;;;;;;;7.15;100.00;101746.37;1721254;82;21525;-38
2022/10/07 00:12:19;;;;;;;5.58;3.08;;;;;;;7.11;100.00;101745.44;1750005;82;21136;-38
2022/10/07 00:14:48;;;;;;;3.95;3.33;;;;;;;7.07;100.00;101750.09;1749965;82;20937;-38
2022/10/07 00:17:14;;;;;;;4.83;3.27;;;;;;;7.04;100.00;101752.63;1749999;82;20897;-38
2022/10/07 00:19:42;;;;;;;7.40;3.08;;;;;;;6.99;100.00;101747.39;1749891;82;20889;-38
2022/10/07 00:22:08;;;;;;;4.17;3.00;;;;;;;6.97;100.00;101747.78;1749904;82;20936;-38
2022/10/07 00:24:35;;;;;;;4.95;2.58;;;;;;;6.92;100.00;101749.41;1750028;82;21245;-38
2022/10/07 00:27:03;;;;;;;4.95;2.65;;;;;;;6.83;100.00;101748.83;1749934;82;20975;-38
2022/10/07 00:29:31;;;;;;;8.83;3.08;;;;;;;6.77;100.00;101747.44;1750010;82;20956;-38
2022/10/07 00:31:58;;;;;;;6.05;3.08;;;;;;;6.73;100.00;101746.95;1749852;82;20952;-38
2022/10/07 00:34:24;;;;;;;11.78;3.35;;;;;;;6.69;100.00;101770.45;1750052;82;20913;-38
2022/10/07 00:36:52;;;;;;;3.77;2.90;;;;;;;6.69;100.00;101755.42;1747187;82;21458;-38
2022/10/07 00:39:18;;;;;;;9.85;3.20;;;;;;;6.70;100.00;101762.33;1740319;81;20929;-38
2022/10/07 00:41:51;;;;;;;5.60;3.08;;;;;;;6.72;100.00;101761.50;1735903;82;21483;-38
2022/10/07 00:44:37;;;;;;;3.95;2.72;;;;;;;6.74;100.00;101764.12;1736029;81;21047;-38
2022/10/07 00:47:27;;;;;;;5.50;3.00;;;;;;;6.73;100.00;101770.11;1735873;82;20901;-38
2022/10/07 00:50:04;;;;;;;10.58;3.35;;;;;;;6.72;100.00;101764.08;1715342;82;21154;-38
2022/10/07 00:52:35;;;;;;;8.55;3.72;;;;;;;6.69;100.00;101761.45;1735866;82;21003;-38
2022/10/07 00:55:06;;;;;;;10.10;3.37;;;;;;;6.65;100.00;101754.92;1736227;82;21007;-38
2022/10/07 00:57:32;;;;;;;5.47;3.52;;;;;;;6.63;100.00;101759.17;1735809;82;20992;-38
2022/10/07 01:00:01;;;;;;;4.90;2.92;;;;;;;6.62;100.00;101758.33;1736007;82;20965;-38
2022/10/07 01:02:29;;;;;;;7.78;3.00;;;;;;;6.59;100.00;101753.97;1736025;82;21256;-38
2022/10/07 01:04:57;;;;;;;9.45;3.52;;;;;;;6.57;100.00;101759.52;1735919;82;20897;-38
2022/10/07 01:07:25;;;;;;;7.40;3.00;;;;;;;6.53;100.00;101763.27;1735910;82;20893;-38
2022/10/07 01:09:52;;;;;;;4.40;3.80;;;;;;;6.55;100.00;101765.05;1735935;82;20853;-38
2022/10/07 01:12:42;;;;;;;6.75;3.27;;;;;;;6.56;100.00;101764.21;1715136;82;20940;-38
2022/10/07 01:15:27;;;;;;;9.45;3.70;;;;;;;6.54;100.00;101763.31;1735904;82;21148;-38
2022/10/07 01:18:16;;;;;;;9.23;3.25;;;;;;;6.50;100.00;101761.94;1735921;82;20929;-37
2022/10/07 01:21:08;;;;;;;4.03;3.10;;;;;;;6.43;100.00;101760.94;1715335;82;20917;-38
2022/10/07 01:23:56;;;;;;;5.12;3.12;;;;;;;6.36;100.00;101765.52;1735896;82;21016;-38
2022/10/07 01:26:56;;;;;;;3.30;2.77;;;;;;;6.27;100.00;101769.66;1737872;82;20920;-37
2022/10/07 01:29:34;;;;;;;5.05;3.12;;;;;;;6.20;100.00;101769.09;1735939;82;21771;-38
2022/10/07 01:32:22;;;;;;;12.75;3.25;;;;;;;6.13;100.00;101774.91;1736119;82;20910;-37
2022/10/07 01:34:50;;;;;;;8.55;2.98;;;;;;;6.09;100.00;101775.28;1735809;82;20897;-37
2022/10/07 01:37:18;;;;;;;8.88;3.10;;;;;;;6.04;100.00;101772.61;1692070;82;20996;-37
2022/10/07 01:39:50;;;;;;;10.50;3.80;;;;;;;6.00;100.00;101774.63;1741955;81;21031;-37
2022/10/07 01:42:17;;;;;;;12.60;3.80;;;;;;;5.96;100.00;101777.09;1744106;82;21206;-37
2022/10/07 01:44:45;;;;;;;11.08;4.42;;;;;;;5.94;100.00;101782.22;1739533;81;20905;-37
2022/10/07 01:47:11;;;;;;;8.88;4.67;;;;;;;5.95;100.00;101780.09;1744096;82;21590;-37
2022/10/07 01:49:40;;;;;;;5.42;3.60;;;;;;;6.01;100.00;101778.97;1744040;82;20932;-37
2022/10/07 01:52:49;;;;;;;6.80;4.42;;;;;;;6.06;100.00;101780.33;1744009;82;20893;-37
2022/10/07 01:55:56;;;;;;;7.87;3.55;;;;;;;6.10;100.00;101786.02;1743940;81;21234;-37
2022/10/07 01:58:53;;;;;;;7.10;3.75;;;;;;;6.12;100.00;101783.46;1743873;82;20933;-37
2022/10/07 02:01:49;;;;;;;9.03;3.92;;;;;;;6.07;100.00;101778.65;1743661;82;20964;-38
2022/10/07 02:04:46;;;;;;;7.55;5.00;;;;;;;6.01;100.00;101775.12;1744086;82;20992;-38
2022/10/07 02:07:44;;;;;;;10.80;4.85;;;;;;;5.99;100.00;101774.59;1744109;81;20849;-37
2022/10/07 02:10:37;;;;;;;6.78;3.90;;;;;;;6.00;100.00;101774.63;1744031;82;21158;-37
2022/10/07 02:13:27;;;;;;;9.30;4.62;;;;;;;6.04;100.00;101782.00;1743976;82;20920;-37
2022/10/07 02:16:00;;;;;;;7.70;4.50;;;;;;;6.03;100.00;101774.73;1743297;82;20956;-38
2022/10/07 02:18:28;;;;;;;9.43;4.15;;;;;;;6.02;100.00;101780.70;1744026;82;20944;-38
2022/10/07 02:20:56;;;;;;;5.97;5.00;;;;;;;6.02;100.00;101777.25;1739393;81;20901;-37
2022/10/07 02:23:24;;;;;;;6.87;4.72;;;;;;;6.02;100.00;101793.56;1743985;82;21161;-37
2022/10/07 02:25:51;;;;;;;10.15;4.90;;;;;;;6.04;100.00;101784.17;1743961;82;20865;-38
2022/10/07 02:28:21;;;;;;;11.55;4.65;;;;;;;6.07;100.00;101779.94;1714882;82;20858;-37
2022/10/07 02:30:52;;;;;;;12.60;3.87;;;;;;;6.08;100.00;101788.98;1743958;82;20932;-38
2022/10/07 02:33:23;;;;;;;4.90;4.40;;;;;;;6.09;100.00;101796.26;1744004;82;20972;-37
2022/10/07 02:35:57;;;;;;;7.35;4.47;;;;;;;6.21;100.00;101794.37;1739094;81;21092;-38
2022/10/07 02:38:25;;;;;;;6.50;4.45;;;;;;;6.26;100.00;101799.18;1743512;81;20885;-38
2022/10/07 02:41:09;;;;;;;11.48;4.37;;;;;;;6.27;100.00;101797.94;1749985;82;20968;-37
2022/10/07 02:43:44;;;;;;;8.33;5.00;;;;;;;6.31;100.00;101804.88;1749778;82;20920;-38
2022/10/07 02:46:16;;;;;;;6.37;3.90;;;;;;;6.35;100.00;101803.66;1749912;82;21601;-37
2022/10/07 02:48:57;;;;;;;10.28;4.20;;;;;;;6.38;100.00;101814.00;1747234;81;21007;-38
2022/10/07 02:51:22;;;;;;;10.28;3.98;;;;;;;6.47;100.00;101816.34;1749674;82;20932;-37
2022/10/07 02:53:50;;;;;;;8.95;4.15;;;;;;;6.55;100.00;101824.23;1749951;82;21494;-38
2022/10/07 02:56:18;;;;;;;4.33;3.92;;;;;;;6.60;100.00;101824.33;1749880;82;21023;-38
2022/10/07 02:58:45;;;;;;;7.75;4.10;;;;;;;6.63;100.00;101820.93;1749785;82;20940;-38
2022/10/07 03:01:16;;;;;;;6.95;4.12;;;;;;;6.65;100.00;101828.26;1749840;82;21716;-38
2022/10/07 03:03:44;;;;;;;11.08;4.53;;;;;;;6.64;100.00;101822.66;1698787;82;20936;-38
2022/10/07 03:06:13;;;;;;;4.92;3.52;;;;;;;6.65;100.00;101825.28;1722767;82;20968;-38
2022/10/07 03:08:41;;;;;;;6.75;3.92;;;;;;;6.68;100.00;101823.17;1749723;82;20932;-38
2022/10/07 03:11:09;;;;;;;8.80;4.03;;;;;;;6.70;100.00;101826.67;1749962;82;20901;-38
2022/10/07 03:13:36;;;;;;;11.20;4.10;;;;;;;6.72;100.00;101827.56;1749893;82;21138;-37
2022/10/07 03:16:05;;;;;;;9.35;4.22;;;;;;;6.74;100.00;101833.61;1749740;82;20988;-37
2022/10/07 03:18:33;;;;;;;8.58;4.10;;;;;;;6.75;100.00;101831.48;1749736;82;20900;-37
2022/10/07 03:21:02;;;;;;;6.58;4.25;;;;;;;6.79;100.00;101842.68;1749171;82;21007;-38
2022/10/07 03:23:30;;;;;;;6.37;4.50;;;;;;;6.78;100.00;101843.12;1749953;82;20968;-38
2022/10/07 03:25:58;;;;;;;10.28;4.25;;;;;;;6.76;100.00;101839.65;1749808;82;21154;-37
2022/10/07 03:28:27;;;;;;;6.92;4.45;;;;;;;6.73;100.00;101842.17;1749698;82;21011;-38
2022/10/07 03:30:58;;;;;;;9.25;6.08;;;;;;;6.69;100.00;101843.80;1749855;82;20995;-38
2022/10/07 03:33:25;;;;;;;9.10;5.87;;;;;;;6.69;100.00;101850.23;1746997;82;20975;-37
2022/10/07 03:35:53;;;;;;;12.30;4.37;;;;;;;6.69;100.00;101842.91;1749709;82;20943;-38
2022/10/07 03:38:20;;;;;;;6.78;5.28;;;;;;;6.70;100.00;101847.25;1749850;82;21175;-37
2022/10/07 03:40:48;;;;;;;8.68;5.75;;;;;;;6.68;100.00;101848.50;1753624;81;20980;-37
2022/10/07 03:43:15;;;;;;;12.13;6.08;;;;;;;6.66;100.00;101845.44;1757754;81;21514;-38
2022/10/07 03:45:44;;;;;;;12.90;5.55;;;;;;;6.66;100.00;101850.58;1757500;81;20900;-37
2022/10/07 03:48:12;;;;;;;12.10;6.87;;;;;;;6.64;100.00;101849.69;1757578;81;20967;-38
2022/10/07 03:50:40;;;;;;;9.48;6.67;;;;;;;6.64;100.00;101854.83;1730429;81;21132;-38
2022/10/07 03:55:13;;;;;;;10.48;6.00;;;;;;;6.73;100.00;101858.89;1816236;79;22604;-37
2022/10/07 03:57:52;;;;;;;6.67;5.47;;;;;;;6.66;100.00;101853.16;1789318;80;21370;-38
2022/10/07 04:00:22;;;;;;;11.18;5.55;;;;;;;6.63;100.00;101859.12;1789068;80;21106;-38
2022/10/07 04:02:50;;;;;;;8.93;5.50;;;;;;;6.61;100.00;101860.37;1773505;80;21002;-38
2022/10/07 04:05:19;;;;;;;10.28;6.55;;;;;;;6.62;100.00;101863.82;1789164;80;20892;-38
2022/10/07 04:07:48;;;;;;;15.60;5.97;;;;;;;6.61;100.00;101860.80;1789327;80;20987;-38
2022/10/07 04:10:18;;;;;;;7.40;5.67;;;;;;;6.62;100.00;101857.39;1789238;80;21449;-38
2022/10/07 04:12:47;;;;;;;11.40;5.62;;;;;;;6.60;100.00;101859.06;1758751;80;21218;-38
2022/10/07 04:15:15;;;;;;;12.90;6.47;;;;;;;6.59;100.00;101860.75;1788975;80;21399;-38
2022/10/07 04:17:46;;;;;;;14.60;6.10;;;;;;;6.59;100.00;101857.33;1759591;80;21022;-38
2022/10/07 04:20:14;;;;;;;6.40;5.80;;;;;;;6.62;100.00;101859.96;1789514;80;20928;-38
2022/10/07 04:22:42;;;;;;;17.00;7.12;;;;;;;6.65;100.00;101867.73;1784260;80;21505;-38
2022/10/07 04:27:58;;;;;;;9.93;6.25;;;;;;;6.68;100.00;101872.06;1760424;81;20924;-38
2022/10/07 04:30:28;;;;;;;13.18;6.75;;;;;;;6.70;100.00;101869.12;1760445;80;20956;-38
2022/10/07 04:32:56;;;;;;;20.97;7.40;;;;;;;6.77;100.00;101874.84;1760389;81;20986;-38
2022/10/07 04:35:23;;;;;;;13.05;6.97;;;;;;;6.86;100.00;101870.30;1760518;81;21458;-38
2022/10/07 04:37:52;;;;;;;12.07;7.08;;;;;;;6.95;100.00;101876.05;1760407;81;21191;-38
2022/10/07 04:40:20;;;;;;;11.83;7.70;;;;;;;7.01;100.00;101873.15;1760389;81;21014;-38
2022/10/07 04:45:34;;;;;;;16.52;7.92;;;;;;;7.20;100.00;101878.66;1760502;81;20928;-38
2022/10/07 04:48:05;;;;;;;19.25;8.70;;;;;;;7.35;100.00;101883.65;1760791;81;20884;-38
2022/10/07 04:50:33;;;;;;;13.62;8.98;;;;;;;7.46;100.00;101891.13;1760443;81;21122;-38
2022/10/07 04:53:01;;;;;;;13.15;8.45;;;;;;;7.59;100.00;101890.92;1760227;81;20939;-38
2022/10/07 04:55:28;;;;;;;14.28;8.53;;;;;;;7.69;100.00;101891.95;1747351;80;20931;-38
2022/10/07 04:57:56;;;;;;;18.67;7.75;;;;;;;7.79;100.00;101894.26;1747122;82;20948;-38
2022/10/07 05:13:32;;;;;;;11.10;7.03;;;;;;;8.80;100.00;101895.27;1871194;76;22694;-40
2022/10/07 05:16:01;;;;;;;10.43;7.37;;;;;;;8.85;100.00;101901.34;1827454;77;20887;-38
2022/10/07 05:18:30;;;;;;;9.30;7.00;;;;;;;8.92;100.00;101907.45;1827301;77;21248;-35
2022/10/07 05:21:04;;;;;;;10.70;7.42;;;;;;;8.99;100.00;101903.23;1790798;80;20927;-37
2022/10/07 05:23:31;;;;;;;14.80;7.45;;;;;;;9.05;100.00;101908.47;1761794;80;20876;-37
2022/10/07 05:26:01;;;;;;;9.73;7.33;;;;;;;9.14;100.00;101921.47;1790960;80;21392;-41
2022/10/07 05:28:28;;;;;;;11.65;7.62;;;;;;;9.24;100.00;101918.56;1790986;80;21531;-38
2022/10/07 05:31:06;;;;;;;13.32;7.40;;;;;;;9.39;100.00;101926.05;1790976;80;21089;-36
2022/10/07 05:33:33;;;;;;;12.10;6.83;;;;;;;9.53;100.00;101926.17;1790884;80;20923;-41
2022/10/07 05:36:00;;;;;;;10.43;7.20;;;;;;;9.71;100.00;101932.78;1790734;80;21503;-37
2022/10/07 05:38:28;;;;;;;11.30;5.92;;;;;;;9.88;100.00;101938.13;1790824;80;20883;-40
2022/10/07 05:41:03;;;;;;;9.13;6.35;;;;;;;10.05;100.00;101937.37;1790913;80;21559;-37
2022/10/07 05:43:35;;;;;;;18.57;7.53;;;;;;;10.22;100.00;101934.89;1763162;80;21273;-36
2022/10/07 05:46:09;;;;;;;13.13;6.65;;;;;;;10.37;100.00;101945.80;1790778;80;20875;-39
2022/10/07 05:48:38;;;;;;;10.78;6.70;;;;;;;10.55;100.00;101941.60;1790954;80;21476;-40
2022/10/07 05:51:07;;;;;;;16.90;7.25;;;;;;;10.70;100.00;101941.69;1790948;80;21535;-41
2022/10/07 05:53:34;;;;;;;16.62;7.62;;;;;;;10.84;100.00;101943.05;1775447;80;21413;-39
2022/10/07 05:56:05;;;;;;;20.48;10.10;;;;;;;10.97;100.00;101934.01;1791015;79;21017;-39
2022/10/07 05:58:37;;;;;;;16.15;9.10;;;;;;;11.09;100.00;101935.36;1779540;80;20880;-38
2022/10/07 06:01:06;;;;;;;15.10;8.38;;;;;;;11.21;100.00;101947.05;1777159;79;20895;-39
2022/10/07 06:03:32;;;;;;;12.15;6.58;;;;;;;11.34;100.00;101944.50;1766093;81;22643;-38
2022/10/07 06:06:01;;;;;;;9.08;6.50;;;;;;;11.46;100.00;101938.47;1766060;80;20860;-37
2022/10/07 06:08:28;;;;;;;13.93;7.45;;;;;;;11.59;100.00;101947.13;1766000;81;21327;-38
2022/10/07 06:13:51;;;;;;;10.53;7.80;;;;;;;11.78;100.00;101950.59;1766146;81;20929;-39
2022/10/07 06:16:20;;;;;;;14.13;7.40;;;;;;;11.90;100.00;101954.92;1765946;80;21452;-39
2022/10/07 06:18:49;;;;;;;18.92;7.78;;;;;;;12.01;100.00;101954.54;1766216;80;20887;-38
2022/10/07 06:21:26;;;;;;;10.63;5.62;;;;;;;12.10;100.00;101954.09;1766064;81;21201;-37
2022/10/07 06:23:56;;;;;;;10.63;6.10;;;;;;;12.18;100.00;101959.70;1766077;79;20908;-37
2022/10/07 06:26:25;;;;;;;9.68;6.35;;;;;;;12.26;100.00;101961.00;1765480;81;21481;-41
2022/10/07 06:28:52;;;;;;;6.95;5.40;;;;;;;12.36;100.00;101965.72;1765778;81;20919;-38
2022/10/07 06:31:22;;;;;;;7.05;5.92;;;;;;;12.47;100.00;101963.98;1765724;80;20991;-41
2022/10/07 06:33:49;;;;;;;7.80;5.03;;;;;;;12.59;100.00;101964.38;1765459;81;21207;-39
2022/10/07 06:36:17;;;;;;;10.70;5.20;;;;;;;12.69;100.00;101972.14;1765531;81;20896;-37
2022/10/07 06:38:46;;;;;;;10.58;5.42;;;;;;;12.80;100.00;101969.09;1765371;80;20979;-37
2022/10/07 06:41:15;;;;;;;9.55;4.80;;;;;;;12.92;100.00;101969.47;1765589;79;20994;-37
2022/10/07 06:43:44;;;;;;;12.25;5.05;;;;;;;13.01;100.00;101977.22;1765535;80;20939;-39
2022/10/07 06:46:14;;;;;;;6.25;5.40;;;;;;;13.11;100.00;101976.75;1765475;81;21965;-40
2022/10/07 06:48:44;;;;;;;8.40;4.80;;;;;;;13.22;100.00;101974.94;1765398;81;21559;-38
2022/10/07 06:51:16;;;;;;;6.45;5.08;;;;;;;13.37;100.00;101986.14;1765473;81;21464;-39
2022/10/07 06:53:44;;;;;;;4.45;4.05;;;;;;;13.50;100.00;101981.77;1765314;81;20983;-40
2022/10/07 06:56:14;;;;;;;8.83;4.55;;;;;;;13.64;100.00;101985.57;1765659;81;21448;-40
2022/10/07 06:58:42;;;;;;;14.75;7.05;;;;;;;13.77;100.00;101986.35;1765296;81;21242;-40
2022/10/07 07:01:11;;;;;;;14.45;8.28;;;;;;;13.91;100.00;101992.33;1765354;81;20954;-39
2022/10/07 07:03:39;;;;;;;6.08;4.65;;;;;;;14.03;100.00;101995.27;1765454;79;20951;-37
2022/10/07 07:06:09;;;;;;;7.75;3.98;;;;;;;14.15;100.00;101991.69;1765450;80;20959;-39
2022/10/07 07:08:40;;;;;;;6.92;5.10;;;;;;;14.26;100.00;101994.17;1765590;79;21073;-36
2022/10/07 07:13:56;;;;;;;4.50;3.90;;;;;;;14.49;100.00;102000.47;1796501;79;20995;-39
2022/10/07 07:16:23;;;;;;;8.13;4.78;;;;;;;14.59;100.00;101994.73;1798959;79;20988;-38
2022/10/07 07:18:55;;;;;;;8.73;3.90;;;;;;;14.67;100.00;102002.47;1798829;79;20965;-38
2022/10/07 07:21:24;;;;;;;4.20;3.83;;;;;;;14.77;100.00;102000.63;1798858;79;21003;-37
2022/10/07 07:23:52;;;;;;;6.42;4.55;;;;;;;14.84;100.00;101996.21;1799222;79;21126;-37
2022/10/07 07:26:19;;;;;;;10.15;4.25;;;;;;;14.96;100.00;102004.33;1798872;79;20853;-39
2022/10/07 07:29:00;;;;;;;9.05;3.80;;;;;;;15.03;100.00;101987.29;1746527;79;21051;-38
2022/10/07 07:31:30;;;;;;;5.75;3.77;;;;;;;15.14;100.00;101994.09;1798580;79;20924;-37
2022/10/07 07:34:00;;;;;;;8.15;4.35;;;;;;;15.22;100.00;101987.05;1799006;79;21011;-36
2022/10/07 07:36:32;;;;;;;6.97;4.22;;;;;;;15.30;100.00;101985.20;1798703;79;21097;-40
2022/10/07 07:39:02;;;;;;;6.45;4.75;;;;;;;15.42;100.00;101983.31;1771794;79;20952;-37
2022/10/07 07:41:32;;;;;;;6.37;4.50;;;;;;;15.50;100.00;101983.59;1799327;79;21497;-39
2022/10/07 07:44:01;;;;;;;10.80;4.60;;;;;;;15.59;100.00;101984.36;1798771;79;21458;-37
2022/10/07 07:46:35;;;;;;;4.35;3.95;;;;;;;15.71;100.00;101986.77;1799103;79;20928;-37
2022/10/07 07:49:02;;;;;;;6.33;3.55;;;;;;;15.78;100.00;101983.16;1799205;79;21096;-39
2022/10/07 07:51:31;;;;;;;7.90;3.45;;;;;;;15.88;100.00;101993.48;1798727;79;20968;-37
2022/10/07 07:53:58;;;;;;;7.85;3.35;;;;;;;16.00;100.00;101999.82;1799070;79;21457;-36
2022/10/07 07:56:27;;;;;;;3.70;3.40;;;;;;;16.08;100.00;101993.17;1798878;79;20913;-39
2022/10/07 07:58:55;;;;;;;6.12;3.25;;;;;;;16.22;100.00;101991.62;1798924;79;20976;-39
2022/10/07 08:01:22;;;;;;;4.92;3.65;;;;;;;16.38;100.00;101986.98;1798165;79;21144;-38
2022/10/07 08:03:50;;;;;;;7.92;3.02;;;;;;;16.56;100.00;101992.33;1799049;79;21440;-38
2022/10/07 08:06:19;;;;;;;6.55;3.45;;;;;;;16.72;100.00;101990.70;1798830;79;20984;-39
2022/10/07 08:08:50;;;;;;;4.85;3.62;;;;;;;16.93;100.00;101988.11;1772806;79;21478;-37
2022/10/07 08:11:19;;;;;;;4.53;3.42;;;;;;;17.10;98.35;101989.09;1799017;79;20865;-38
2022/10/07 08:13:48;;;;;;;3.27;3.00;;;;;;;17.26;96.48;101980.88;1798586;79;21092;-39
2022/10/07 08:16:19;;;;;;;6.80;3.42;;;;;;;17.40;96.54;101981.88;1798702;79;20944;-40
2022/10/07 08:18:48;;;;;;;7.25;3.47;;;;;;;17.50;93.37;101984.72;1772129;79;20996;-37
2022/10/07 08:21:18;;;;;;;3.95;3.50;;;;;;;17.40;93.46;101985.38;1798720;79;20949;-38
2022/10/07 08:23:55;;;;;;;6.62;3.58;;;;;;;17.34;93.96;101986.83;1798907;79;20948;-39
2022/10/07 08:26:27;;;;;;;4.58;3.40;;;;;;;17.32;94.35;101986.00;1799174;79;21306;-37
2022/10/07 08:28:55;;;;;;;3.50;2.98;;;;;;;17.46;94.42;101983.06;1799131;79;20952;-40
2022/10/07 08:31:22;;;;;;;8.35;4.05;;;;;;;17.67;94.03;101978.61;1798736;79;20952;-38
2022/10/07 08:33:49;;;;;;;6.47;3.58;;;;;;;17.92;92.63;101981.93;1798512;79;20960;-37
2022/10/07 08:36:18;;;;;;;8.50;3.20;;;;;;;18.12;91.57;101985.00;1798911;79;21012;-40
2022/10/07 08:38:45;;;;;;;7.70;2.90;;;;;;;18.34;89.95;101988.77;1798877;79;21221;-39
2022/10/07 08:42:00;;;;;;;5.83;3.52;;;;;;;18.48;88.63;101980.97;1799226;79;20850;-40
2022/10/07 08:44:40;;;;;;;6.50;3.75;;;;;;;18.54;88.01;101980.78;1798782;79;20945;-39
2022/10/07 08:47:35;;;;;;;9.08;3.92;;;;;;;18.52;87.17;101983.91;1799030;79;20901;-38
2022/10/07 08:50:15;;;;;;;7.67;2.90;;;;;;;18.47;87.22;101983.18;1798696;79;21461;-38
2022/10/07 08:53:01;;;;;;;5.87;2.87;;;;;;;18.46;86.18;101980.15;1799152;79;21110;-41
2022/10/07 08:55:44;;;;;;;4.83;3.00;;;;;;;18.58;85.98;101990.31;1798637;79;20988;-38
2022/10/07 08:58:41;;;;;;;8.18;3.72;;;;;;;18.75;85.01;101974.53;1798720;79;21020;-38
2022/10/07 09:01:21;;;;;;;5.47;3.75;;;;;;;19.04;83.58;101967.16;1785551;79;20991;-39
2022/10/07 09:04:29;;;;;;;4.67;3.05;;;;;;;18.98;82.40;101971.28;1799173;79;20948;-40
2022/10/07 09:07:12;;;;;;;4.42;3.75;;;;;;;19.09;81.70;101969.66;1798795;78;21212;-38
2022/10/07 09:09:52;;;;;;;3.98;3.52;;;;;;;19.23;78.81;101965.29;1798854;79;20933;-38
2022/10/07 09:12:29;;;;;;;6.10;2.72;;;;;;;19.20;80.67;101968.85;1798841;78;20972;-39
2022/10/07 09:14:57;;;;;;;7.40;3.12;;;;;;;19.50;78.77;101969.27;1796810;78;20948;-39
2022/10/07 09:17:41;;;;;;;5.37;2.75;;;;;;;19.60;77.99;101960.63;1798675;79;20972;-39
2022/10/07 09:20:15;;;;;;;3.50;2.20;;;;;;;19.78;76.14;101960.00;1798969;79;21184;-39
2022/10/07 09:22:45;;;;;;;5.00;2.15;;;;;;;20.00;75.53;101952.73;1771836;79;20912;-41
2022/10/07 09:25:20;;;;;;;5.97;2.47;;;;;;;20.26;73.09;101955.37;1799080;79;20997;-39
2022/10/07 09:27:49;;;;;;;6.20;2.52;;;;;;;20.38;73.16;101949.22;1798833;79;20909;-37
2022/10/07 09:30:16;;;;;;;3.98;2.33;;;;;;;20.56;72.66;101947.28;1798791;79;21035;-38
2022/10/07 09:32:48;;;;;;;8.95;2.40;;;;;;;20.63;71.32;101945.69;1798721;79;21141;-40
2022/10/07 09:35:21;;;;;;;6.95;2.60;;;;;;;20.58;70.62;101955.50;1798749;79;20972;-38
2022/10/07 09:38:06;;;;;;;4.05;2.20;;;;;;;20.30;70.91;101948.62;1746891;79;20940;-39
2022/10/07 09:43:25;;;;;;;4.30;2.37;;;;;;;19.58;69.26;101954.55;1798815;79;21615;-39
2022/10/07 09:45:54;;;;;;;3.83;2.33;;;;;;;19.52;71.71;101951.69;1798921;79;20949;-40
2022/10/07 09:48:32;;;;;;;2.25;1.80;;;;;;;19.79;70.74;101952.52;1798646;79;20960;-39
2022/10/07 09:51:25;;;;;;;3.30;1.92;;;;;;;19.87;67.58;101952.73;1798782;79;20987;-37
2022/10/07 09:54:03;;;;;;;4.65;2.27;;;;;;;19.91;65.96;101948.66;1798450;79;21063;-39
2022/10/07 09:56:41;;;;;;;3.33;1.72;;;;;;;19.65;66.66;101952.14;1798669;79;21414;-40
2022/10/07 09:59:23;;;;;;;5.50;1.50;;;;;;;19.40;64.74;101954.25;1798806;79;21261;-39
2022/10/07 10:01:59;;;;;;;2.80;2.12;;;;;;;19.06;64.42;101945.66;1798695;79;20992;-39
2022/10/07 10:04:35;;;;;;;5.00;1.60;;;;;;;18.84;65.95;101954.61;1798252;79;20909;-38
2022/10/07 10:07:20;;;;;;;3.47;2.00;;;;;;;18.78;65.62;101961.33;1798836;79;21015;-41
2022/10/07 10:09:58;;;;;;;9.10;4.17;;;;;;;18.76;65.24;101952.20;1799110;79;20988;-38
2022/10/07 10:12:25;;;;;;;2.60;2.33;;;;;;;18.91;64.67;101953.52;1798920;79;22018;-39
2022/10/07 10:14:58;;;;;;;2.98;1.87;;;;;;;19.00;63.82;101955.48;1769324;79;20994;-38
2022/10/07 10:17:37;;;;;;;2.77;1.87;;;;;;;19.07;64.24;101944.76;1761074;80;20958;-36
2022/10/07 10:20:27;;;;;;;1.62;1.45;;;;;;;19.21;64.29;101940.39;1765480;81;21029;-40
2022/10/07 10:22:54;;;;;;;4.05;1.60;;;;;;;19.30;62.75;101937.93;1765388;80;20943;-41
2022/10/07 10:29:00;;;;;;;1.55;1.17;;;;;;;19.51;57.27;101922.40;1765428;80;20939;-37
2022/10/07 10:32:06;;;;;;;2.65;1.32;;;;;;;19.68;57.33;101924.45;1765560;80;20987;-37
2022/10/07 10:35:02;;;;;;;1.52;1.20;;;;;;;19.79;54.20;101914.91;1765831;79;20986;-39
2022/10/07 10:38:27;;;;;;;5.90;1.35;;;;;;;19.96;54.32;101922.23;1765858;81;21562;-39
2022/10/07 10:41:07;;;;;;;4.08;1.60;;;;;;;20.09;53.01;101917.39;1765548;81;21089;-38
2022/10/07 10:44:01;;;;;;;1.90;1.30;;;;;;;20.24;52.96;101910.73;1765332;81;20986;-37
2022/10/07 10:46:54;;;;;;;9.60;4.35;;;;;;;20.36;53.19;101905.04;1732507;81;20924;-40
2022/10/07 10:49:39;;;;;;;9.50;3.90;;;;;;;20.53;50.63;101896.95;1765743;80;21480;-38
2022/10/07 10:52:43;;;;;;;8.08;3.98;;;;;;;20.53;49.34;101896.95;1745295;81;20968;-39
2022/10/07 10:55:32;;;;;;;5.67;2.50;;;;;;;20.52;49.39;101900.50;1764993;81;21249;-38
2022/10/07 10:58:31;;;;;;;5.35;2.20;;;;;;;20.61;49.08;101890.97;1765392;81;20934;-41
2022/10/07 11:01:14;;;;;;;2.83;1.22;;;;;;;20.60;49.02;101894.52;1765545;81;21432;-38
2022/10/07 11:04:12;;;;;;;2.75;1.22;;;;;;;20.55;48.47;101892.49;1765578;81;20994;-40
2022/10/07 11:06:43;;;;;;;2.27;1.15;;;;;;;20.46;46.56;101883.65;1765495;81;20919;-39
2022/10/07 11:09:19;;;;;;;6.47;1.37;;;;;;;20.26;47.43;101892.28;1765410;81;21781;-38
2022/10/07 11:11:45;;;;;;;1.45;1.20;;;;;;;20.18;47.89;101879.42;1759631;81;20951;-40
2022/10/07 11:14:16;;;;;;;4.75;2.15;;;;;;;20.21;48.00;101888.06;1765649;79;20958;-38
2022/10/07 11:16:53;;;;;;;3.00;1.70;;;;;;;20.42;47.64;101889.94;1765802;81;20943;-40
2022/10/07 11:19:39;;;;;;;9.28;2.45;;;;;;;20.57;47.61;101889.82;1765975;81;20951;-40
2022/10/07 11:22:15;;;;;;;1.22;1.02;;;;;;;20.39;45.89;101886.52;1766090;81;26541;-40
2022/10/07 11:24:46;;;;;;;4.65;1.50;;;;;;;20.07;45.26;101884.59;1766047;81;21449;-39
2022/10/07 11:27:22;;;;;;;2.70;1.25;;;;;;;20.14;46.18;101884.39;1765929;81;20991;-38
2022/10/07 11:30:17;;;;;;;7.05;1.40;;;;;;;20.17;45.80;101884.27;1765906;81;20915;-40
2022/10/07 11:32:55;;;;;;;1.65;1.20;;;;;;;20.08;47.30;101888.96;1766172;81;21026;-39
2022/10/07 11:35:35;;;;;;;8.68;2.33;;;;;;;20.13;47.07;101888.77;1765834;80;21114;-38
2022/10/07 11:38:15;;;;;;;6.50;3.52;;;;;;;20.30;47.18;101888.16;1765290;81;20903;-37
2022/10/07 11:40:57;;;;;;;3.80;1.60;;;;;;;20.53;46.82;101887.75;1765057;81;21558;-37
2022/10/07 11:43:46;;;;;;;3.80;1.30;;;;;;;20.70;46.48;101883.63;1765035;81;20959;-39
2022/10/07 11:46:18;;;;;;;3.83;1.52;;;;;;;20.65;43.33;101883.35;1766020;81;21026;-39
2022/10/07 11:48:49;;;;;;;1.77;0.95;;;;;;;20.46;44.87;101889.78;1766213;81;21103;-39
2022/10/07 11:51:28;;;;;;;11.15;3.33;;;;;;;20.36;44.80;101886.64;1765968;81;21409;-37
2022/10/07 11:53:56;;;;;;;1.22;1.10;;;;;;;20.36;45.45;101895.84;1763763;81;20955;-38
2022/10/07 11:56:25;;;;;;;4.55;1.35;;;;;;;20.28;46.55;101889.98;1766319;81;20951;-36
2022/10/07 11:59:04;;;;;;;3.10;2.30;;;;;;;20.19;46.77;101881.13;1766424;81;21061;-37
2022/10/07 12:01:45;;;;;;;6.83;2.47;;;;;;;20.25;47.03;101878.27;1765966;81;21785;-38
2022/10/07 12:04:26;;;;;;;2.72;1.80;;;;;;;20.30;46.85;101880.27;1766210;81;21034;-39
2022/10/07 12:07:33;;;;;;;3.70;1.40;;;;;;;20.38;47.80;101882.62;1764426;81;20986;-40
2022/10/07 12:10:07;;;;;;;2.87;1.52;;;;;;;20.49;47.42;101875.20;1731652;81;21044;-40
2022/10/07 12:12:48;;;;;;;2.52;2.08;;;;;;;20.51;46.69;101874.67;1762733;81;21038;-39
2022/10/07 12:15:38;;;;;;;4.15;2.77;;;;;;;20.46;46.85;101870.06;1765430;79;21260;-39
2022/10/07 12:18:19;;;;;;;3.85;1.47;;;;;;;20.41;46.49;101875.08;1765353;80;20951;-39
2022/10/07 12:20:58;;;;;;;2.75;1.50;;;;;;;20.15;47.06;101872.48;1765327;81;20966;-39
2022/10/07 12:23:31;;;;;;;4.35;2.83;;;;;;;20.15;47.14;101874.27;1765310;81;20943;-38
2022/10/07 12:26:35;;;;;;;9.58;1.52;;;;;;;20.23;47.87;101866.95;1764207;81;20927;-37